sensor_id;sensor_type;location;lat;lon;timestamp;P1;durP1;ratioP1;P2;durP2;ratioP2
27031;SDS011;14580;52.918;9.214;2023-04-03T00:03:14;3.50;;;1.27;;
27031;SDS011;14580;52.918;9.214;2023-04-03T00:06:39;3.83;;;1.20;;
27031;SDS011;14580;52.918;9.214;2023-04-03T00:10:05;3.83;;;0.80;;
27031;SDS011;14580;52.918;9.214;2023-04-03T00:13:30;4.30;;;1.27;;
27031;SDS011;14580;52.918;9.214;2023-04-03T00:16:59;5.23;;;1.27;;
27031;SDS011;14580;52.918;9.214;2023-04-03T00:20:27;2.07;;;1.53;;
27031;SDS011;14580;52.918;9.214;2023-04-03T00:23:55;3.43;;;1.20;;
27031;SDS011;14580;52.918;9.214;2023-04-03T00:27:40;3.43;;;1.50;;
27031;SDS011;14580;52.918;9.214;2023-04-03T00:31:21;4.10;;;1.27;;
27031;SDS011;14580;52.918;9.214;2023-04-03T00:34:56;3.40;;;0.93;;
27031;SDS011;14580;52.918;9.214;2023-04-03T00:43:44;3.23;;;1.47;;
27031;SDS011;14580;52.918;9.214;2023-04-03T00:47:12;5.00;;;1.27;;
27031;SDS011;14580;52.918;9.214;2023-04-03T00:51:04;2.70;;;1.10;;
27031;SDS011;14580;52.918;9.214;2023-04-03T00:54:51;3.90;;;2.23;;
27031;SDS011;14580;52.918;9.214;2023-04-03T01:02:55;5.00;;;1.30;;
27031;SDS011;14580;52.918;9.214;2023-04-03T01:07:35;3.87;;;1.60;;
27031;SDS011;14580;52.918;9.214;2023-04-03T01:11:00;5.80;;;1.47;;
27031;SDS011;14580;52.918;9.214;2023-04-03T01:14:44;2.97;;;1.40;;
27031;SDS011;14580;52.918;9.214;2023-04-03T01:18:10;2.27;;;1.50;;
27031;SDS011;14580;52.918;9.214;2023-04-03T01:21:45;3.97;;;1.43;;
27031;SDS011;14580;52.918;9.214;2023-04-03T01:25:39;4.30;;;1.83;;
27031;SDS011;14580;52.918;9.214;2023-04-03T01:29:08;2.30;;;1.17;;
27031;SDS011;14580;52.918;9.214;2023-04-03T01:32:33;4.27;;;1.27;;
27031;SDS011;14580;52.918;9.214;2023-04-03T01:35:58;3.97;;;1.27;;
27031;SDS011;14580;52.918;9.214;2023-04-03T01:39:23;4.53;;;1.30;;
27031;SDS011;14580;52.918;9.214;2023-04-03T01:42:48;4.57;;;1.67;;
27031;SDS011;14580;52.918;9.214;2023-04-03T01:46:14;2.70;;;1.97;;
27031;SDS011;14580;52.918;9.214;2023-04-03T01:49:42;3.80;;;1.40;;
27031;SDS011;14580;52.918;9.214;2023-04-03T01:53:06;2.73;;;1.30;;
27031;SDS011;14580;52.918;9.214;2023-04-03T01:56:31;3.50;;;1.20;;
27031;SDS011;14580;52.918;9.214;2023-04-03T01:59:56;3.47;;;1.40;;
27031;SDS011;14580;52.918;9.214;2023-04-03T02:03:21;3.27;;;1.13;;
27031;SDS011;14580;52.918;9.214;2023-04-03T02:06:46;4.43;;;1.30;;
27031;SDS011;14580;52.918;9.214;2023-04-03T02:10:11;2.03;;;1.17;;
27031;SDS011;14580;52.918;9.214;2023-04-03T02:13:36;3.23;;;1.57;;
27031;SDS011;14580;52.918;9.214;2023-04-03T02:17:02;4.33;;;1.50;;
27031;SDS011;14580;52.918;9.214;2023-04-03T02:20:27;3.93;;;1.33;;
27031;SDS011;14580;52.918;9.214;2023-04-03T02:23:59;6.07;;;1.17;;
27031;SDS011;14580;52.918;9.214;2023-04-03T02:27:27;5.93;;;1.40;;
27031;SDS011;14580;52.918;9.214;2023-04-03T02:30:52;5.03;;;1.30;;
27031;SDS011;14580;52.918;9.214;2023-04-03T02:34:17;3.00;;;1.67;;
27031;SDS011;14580;52.918;9.214;2023-04-03T02:37:41;3.30;;;1.23;;
27031;SDS011;14580;52.918;9.214;2023-04-03T02:41:08;5.03;;;1.67;;
27031;SDS011;14580;52.918;9.214;2023-04-03T02:44:34;4.90;;;1.53;;
27031;SDS011;14580;52.918;9.214;2023-04-03T02:47:58;4.03;;;1.20;;
27031;SDS011;14580;52.918;9.214;2023-04-03T02:51:23;4.97;;;1.50;;
27031;SDS011;14580;52.918;9.214;2023-04-03T02:54:48;4.60;;;1.57;;
27031;SDS011;14580;52.918;9.214;2023-04-03T02:58:13;5.37;;;1.63;;
27031;SDS011;14580;52.918;9.214;2023-04-03T03:01:37;3.37;;;1.40;;
27031;SDS011;14580;52.918;9.214;2023-04-03T03:05:02;4.77;;;1.53;;
27031;SDS011;14580;52.918;9.214;2023-04-03T03:08:32;5.00;;;1.67;;
27031;SDS011;14580;52.918;9.214;2023-04-03T03:11:58;3.53;;;1.20;;
27031;SDS011;14580;52.918;9.214;2023-04-03T03:15:22;4.40;;;1.70;;
27031;SDS011;14580;52.918;9.214;2023-04-03T03:18:47;6.73;;;1.33;;
27031;SDS011;14580;52.918;9.214;2023-04-03T03:22:12;4.03;;;1.57;;
27031;SDS011;14580;52.918;9.214;2023-04-03T03:26:07;3.87;;;1.23;;
27031;SDS011;14580;52.918;9.214;2023-04-03T03:29:33;4.57;;;1.30;;
27031;SDS011;14580;52.918;9.214;2023-04-03T03:32:59;3.10;;;1.37;;
27031;SDS011;14580;52.918;9.214;2023-04-03T03:36:24;3.00;;;1.50;;
27031;SDS011;14580;52.918;9.214;2023-04-03T03:39:49;5.30;;;1.70;;
27031;SDS011;14580;52.918;9.214;2023-04-03T03:43:15;4.17;;;1.83;;
27031;SDS011;14580;52.918;9.214;2023-04-03T03:46:40;2.77;;;1.87;;
27031;SDS011;14580;52.918;9.214;2023-04-03T03:50:05;4.87;;;1.70;;
27031;SDS011;14580;52.918;9.214;2023-04-03T03:53:31;4.37;;;1.40;;
27031;SDS011;14580;52.918;9.214;2023-04-03T03:56:56;2.77;;;1.10;;
27031;SDS011;14580;52.918;9.214;2023-04-03T04:00:21;3.43;;;1.30;;
27031;SDS011;14580;52.918;9.214;2023-04-03T04:03:45;4.43;;;1.53;;
27031;SDS011;14580;52.918;9.214;2023-04-03T04:07:11;3.40;;;1.63;;
27031;SDS011;14580;52.918;9.214;2023-04-03T04:10:35;6.03;;;1.60;;
27031;SDS011;14580;52.918;9.214;2023-04-03T04:14:04;4.00;;;1.53;;
27031;SDS011;14580;52.918;9.214;2023-04-03T04:17:30;5.80;;;2.07;;
27031;SDS011;14580;52.918;9.214;2023-04-03T04:20:55;4.90;;;1.37;;
27031;SDS011;14580;52.918;9.214;2023-04-03T04:24:20;6.37;;;1.70;;
27031;SDS011;14580;52.918;9.214;2023-04-03T04:27:45;6.13;;;1.37;;
27031;SDS011;14580;52.918;9.214;2023-04-03T04:31:09;2.93;;;1.30;;
27031;SDS011;14580;52.918;9.214;2023-04-03T04:34:35;3.60;;;1.80;;
27031;SDS011;14580;52.918;9.214;2023-04-03T04:38:00;3.33;;;1.57;;
27031;SDS011;14580;52.918;9.214;2023-04-03T04:41:25;4.07;;;1.80;;
27031;SDS011;14580;52.918;9.214;2023-04-03T04:44:51;3.30;;;1.43;;
27031;SDS011;14580;52.918;9.214;2023-04-03T04:48:26;6.43;;;1.37;;
27031;SDS011;14580;52.918;9.214;2023-04-03T04:51:51;5.33;;;1.53;;
27031;SDS011;14580;52.918;9.214;2023-04-03T04:55:16;5.70;;;1.27;;
27031;SDS011;14580;52.918;9.214;2023-04-03T04:58:41;4.77;;;1.70;;
27031;SDS011;14580;52.918;9.214;2023-04-03T05:02:06;4.27;;;1.40;;
27031;SDS011;14580;52.918;9.214;2023-04-03T05:05:31;3.90;;;1.37;;
27031;SDS011;14580;52.918;9.214;2023-04-03T05:08:57;3.13;;;1.50;;
27031;SDS011;14580;52.918;9.214;2023-04-03T05:12:23;4.90;;;1.70;;
27031;SDS011;14580;52.918;9.214;2023-04-03T05:15:48;2.97;;;1.43;;
27031;SDS011;14580;52.918;9.214;2023-04-03T05:19:18;4.83;;;1.90;;
27031;SDS011;14580;52.918;9.214;2023-04-03T05:22:43;6.50;;;1.83;;
27031;SDS011;14580;52.918;9.214;2023-04-03T05:26:08;6.83;;;1.70;;
27031;SDS011;14580;52.918;9.214;2023-04-03T05:29:34;3.90;;;1.83;;
27031;SDS011;14580;52.918;9.214;2023-04-03T05:33:36;3.53;;;1.37;;
27031;SDS011;14580;52.918;9.214;2023-04-03T05:37:02;3.33;;;1.23;;
27031;SDS011;14580;52.918;9.214;2023-04-03T05:40:27;6.37;;;1.60;;
27031;SDS011;14580;52.918;9.214;2023-04-03T05:43:52;3.47;;;1.67;;
27031;SDS011;14580;52.918;9.214;2023-04-03T06:04:37;5.40;;;1.70;;
27031;SDS011;14580;52.918;9.214;2023-04-03T06:08:03;2.83;;;1.37;;
27031;SDS011;14580;52.918;9.214;2023-04-03T06:11:29;8.07;;;1.70;;
27031;SDS011;14580;52.918;9.214;2023-04-03T06:14:55;4.40;;;1.50;;
27031;SDS011;14580;52.918;9.214;2023-04-03T06:29:11;1.70;;;1.07;;
27031;SDS011;14580;52.918;9.214;2023-04-03T07:27:29;2.03;;;0.70;;
27031;SDS011;14580;52.918;9.214;2023-04-03T07:31:01;2.80;;;0.77;;
27031;SDS011;14580;52.918;9.214;2023-04-03T07:34:28;1.73;;;0.70;;
27031;SDS011;14580;52.918;9.214;2023-04-03T07:37:53;2.70;;;1.00;;
27031;SDS011;14580;52.918;9.214;2023-04-03T07:41:19;3.83;;;0.87;;
27031;SDS011;14580;52.918;9.214;2023-04-03T07:44:45;2.40;;;1.07;;
27031;SDS011;14580;52.918;9.214;2023-04-03T07:48:11;3.93;;;0.80;;
27031;SDS011;14580;52.918;9.214;2023-04-03T07:51:36;4.37;;;1.00;;
27031;SDS011;14580;52.918;9.214;2023-04-03T07:55:01;2.37;;;0.70;;
27031;SDS011;14580;52.918;9.214;2023-04-03T07:58:28;5.00;;;0.53;;
27031;SDS011;14580;52.918;9.214;2023-04-03T08:01:55;2.43;;;0.67;;
27031;SDS011;14580;52.918;9.214;2023-04-03T08:05:20;2.00;;;0.90;;
27031;SDS011;14580;52.918;9.214;2023-04-03T08:08:47;1.10;;;0.47;;
27031;SDS011;14580;52.918;9.214;2023-04-03T08:12:11;1.27;;;0.70;;
27031;SDS011;14580;52.918;9.214;2023-04-03T08:15:38;5.27;;;0.80;;
27031;SDS011;14580;52.918;9.214;2023-04-03T08:19:04;3.03;;;0.90;;
27031;SDS011;14580;52.918;9.214;2023-04-03T08:22:32;1.23;;;1.03;;
27031;SDS011;14580;52.918;9.214;2023-04-03T08:25:57;5.70;;;0.90;;
27031;SDS011;14580;52.918;9.214;2023-04-03T08:29:24;1.50;;;0.73;;
27031;SDS011;14580;52.918;9.214;2023-04-03T08:32:50;2.27;;;0.80;;
27031;SDS011;14580;52.918;9.214;2023-04-03T08:36:27;2.90;;;0.70;;
27031;SDS011;14580;52.918;9.214;2023-04-03T08:39:53;1.20;;;0.80;;
27031;SDS011;14580;52.918;9.214;2023-04-03T08:43:36;2.20;;;0.90;;
27031;SDS011;14580;52.918;9.214;2023-04-03T08:47:28;2.70;;;0.63;;
27031;SDS011;14580;52.918;9.214;2023-04-03T08:51:10;3.23;;;0.90;;
27031;SDS011;14580;52.918;9.214;2023-04-03T08:54:53;3.43;;;1.00;;
27031;SDS011;14580;52.918;9.214;2023-04-03T08:58:30;1.60;;;0.80;;
27031;SDS011;14580;52.918;9.214;2023-04-03T09:02:03;3.97;;;0.90;;
27031;SDS011;14580;52.918;9.214;2023-04-03T09:05:42;2.30;;;0.80;;
27031;SDS011;14580;52.918;9.214;2023-04-03T09:16:48;1.27;;;0.70;;
27031;SDS011;14580;52.918;9.214;2023-04-03T09:24:15;2.97;;;0.80;;
27031;SDS011;14580;52.918;9.214;2023-04-03T09:27:46;2.13;;;0.83;;
27031;SDS011;14580;52.918;9.214;2023-04-03T09:31:22;2.53;;;0.83;;
27031;SDS011;14580;52.918;9.214;2023-04-03T09:34:52;2.20;;;0.77;;
27031;SDS011;14580;52.918;9.214;2023-04-03T09:38:21;2.47;;;0.70;;
27031;SDS011;14580;52.918;9.214;2023-04-03T09:41:59;1.47;;;0.60;;
27031;SDS011;14580;52.918;9.214;2023-04-03T09:45:32;1.13;;;0.60;;
27031;SDS011;14580;52.918;9.214;2023-04-03T09:49:03;0.80;;;0.40;;
27031;SDS011;14580;52.918;9.214;2023-04-03T09:52:35;0.63;;;0.50;;
27031;SDS011;14580;52.918;9.214;2023-04-03T10:00:01;0.70;;;0.70;;
27031;SDS011;14580;52.918;9.214;2023-04-03T10:03:35;0.70;;;0.70;;
27031;SDS011;14580;52.918;9.214;2023-04-03T10:07:25;3.13;;;1.37;;
27031;SDS011;14580;52.918;9.214;2023-04-03T10:11:16;1.53;;;0.93;;
27031;SDS011;14580;52.918;9.214;2023-04-03T10:15:00;2.07;;;1.23;;
27031;SDS011;14580;52.918;9.214;2023-04-03T10:34:43;1.97;;;0.60;;
27031;SDS011;14580;52.918;9.214;2023-04-03T10:46:37;1.03;;;0.50;;
27031;SDS011;14580;52.918;9.214;2023-04-03T10:54:34;2.00;;;0.77;;
27031;SDS011;14580;52.918;9.214;2023-04-03T10:58:08;0.83;;;0.70;;
27031;SDS011;14580;52.918;9.214;2023-04-03T11:01:59;1.27;;;0.83;;
27031;SDS011;14580;52.918;9.214;2023-04-03T11:05:56;1.77;;;0.57;;
27031;SDS011;14580;52.918;9.214;2023-04-03T11:09:27;1.63;;;0.70;;
27031;SDS011;14580;52.918;9.214;2023-04-03T11:17:04;0.70;;;0.70;;
27031;SDS011;14580;52.918;9.214;2023-04-03T11:21:08;2.50;;;0.80;;
27031;SDS011;14580;52.918;9.214;2023-04-03T11:28:39;1.17;;;0.70;;
27031;SDS011;14580;52.918;9.214;2023-04-03T11:39:58;1.80;;;1.00;;
27031;SDS011;14580;52.918;9.214;2023-04-03T11:43:29;1.20;;;0.63;;
27031;SDS011;14580;52.918;9.214;2023-04-03T11:47:06;1.13;;;0.50;;
27031;SDS011;14580;52.918;9.214;2023-04-03T11:50:46;1.67;;;0.80;;
27031;SDS011;14580;52.918;9.214;2023-04-03T11:58:17;2.13;;;0.80;;
27031;SDS011;14580;52.918;9.214;2023-04-03T12:01:52;2.67;;;0.97;;
27031;SDS011;14580;52.918;9.214;2023-04-03T12:05:28;1.23;;;0.80;;
27031;SDS011;14580;52.918;9.214;2023-04-03T12:08:58;1.07;;;0.63;;
27031;SDS011;14580;52.918;9.214;2023-04-03T12:15:52;2.00;;;0.80;;
27031;SDS011;14580;52.918;9.214;2023-04-03T12:19:32;2.17;;;0.80;;
27031;SDS011;14580;52.918;9.214;2023-04-03T12:23:29;1.57;;;0.80;;
27031;SDS011;14580;52.918;9.214;2023-04-03T12:30:27;2.27;;;0.70;;
27031;SDS011;14580;52.918;9.214;2023-04-03T12:34:22;2.43;;;1.30;;
27031;SDS011;14580;52.918;9.214;2023-04-03T12:42:59;2.00;;;0.90;;
27031;SDS011;14580;52.918;9.214;2023-04-03T12:46:51;3.07;;;0.63;;
27031;SDS011;14580;52.918;9.214;2023-04-03T12:50:27;1.27;;;0.67;;
27031;SDS011;14580;52.918;9.214;2023-04-03T12:54:01;3.63;;;1.03;;
27031;SDS011;14580;52.918;9.214;2023-04-03T12:57:35;1.10;;;0.80;;
27031;SDS011;14580;52.918;9.214;2023-04-03T13:04:26;1.13;;;0.70;;
27031;SDS011;14580;52.918;9.214;2023-04-03T13:07:56;1.70;;;0.77;;
27031;SDS011;14580;52.918;9.214;2023-04-03T13:11:38;0.90;;;0.70;;
27031;SDS011;14580;52.918;9.214;2023-04-03T13:18:44;1.03;;;0.67;;
27031;SDS011;14580;52.918;9.214;2023-04-03T13:22:21;1.60;;;0.80;;
27031;SDS011;14580;52.918;9.214;2023-04-03T13:25:49;2.73;;;0.70;;
27031;SDS011;14580;52.918;9.214;2023-04-03T13:29:24;2.50;;;0.80;;
27031;SDS011;14580;52.918;9.214;2023-04-03T13:33:25;3.13;;;0.97;;
27031;SDS011;14580;52.918;9.214;2023-04-03T13:40:25;1.40;;;0.70;;
27031;SDS011;14580;52.918;9.214;2023-04-03T13:43:55;1.50;;;0.97;;
27031;SDS011;14580;52.918;9.214;2023-04-03T13:47:38;2.33;;;1.27;;
27031;SDS011;14580;52.918;9.214;2023-04-03T13:55:00;1.37;;;1.00;;
27031;SDS011;14580;52.918;9.214;2023-04-03T13:58:51;1.80;;;0.87;;
27031;SDS011;14580;52.918;9.214;2023-04-03T14:02:28;2.23;;;0.80;;
27031;SDS011;14580;52.918;9.214;2023-04-03T14:06:06;0.83;;;0.83;;
27031;SDS011;14580;52.918;9.214;2023-04-03T14:09:35;1.17;;;0.97;;
27031;SDS011;14580;52.918;9.214;2023-04-03T14:13:02;1.50;;;0.90;;
27031;SDS011;14580;52.918;9.214;2023-04-03T14:16:32;2.27;;;0.70;;
27031;SDS011;14580;52.918;9.214;2023-04-03T14:20:01;1.50;;;1.00;;
27031;SDS011;14580;52.918;9.214;2023-04-03T14:23:27;2.67;;;1.10;;
27031;SDS011;14580;52.918;9.214;2023-04-03T14:26:57;1.63;;;0.87;;
27031;SDS011;14580;52.918;9.214;2023-04-03T14:30:29;1.40;;;1.00;;
27031;SDS011;14580;52.918;9.214;2023-04-03T14:33:56;2.23;;;1.23;;
27031;SDS011;14580;52.918;9.214;2023-04-03T14:37:24;2.10;;;1.00;;
27031;SDS011;14580;52.918;9.214;2023-04-03T14:40:53;0.97;;;0.87;;
27031;SDS011;14580;52.918;9.214;2023-04-03T14:44:19;1.97;;;0.87;;
27031;SDS011;14580;52.918;9.214;2023-04-03T14:47:46;0.70;;;0.70;;
27031;SDS011;14580;52.918;9.214;2023-04-03T14:51:16;3.47;;;1.63;;
27031;SDS011;14580;52.918;9.214;2023-04-03T14:54:50;1.27;;;1.00;;
27031;SDS011;14580;52.918;9.214;2023-04-03T14:58:16;2.87;;;1.23;;
27031;SDS011;14580;52.918;9.214;2023-04-03T15:01:46;1.37;;;0.77;;
27031;SDS011;14580;52.918;9.214;2023-04-03T15:05:14;1.43;;;0.80;;
27031;SDS011;14580;52.918;9.214;2023-04-03T15:08:40;1.10;;;0.80;;
27031;SDS011;14580;52.918;9.214;2023-04-03T15:12:08;2.53;;;1.00;;
27031;SDS011;14580;52.918;9.214;2023-04-03T15:15:36;1.63;;;1.07;;
27031;SDS011;14580;52.918;9.214;2023-04-03T15:19:01;1.30;;;0.93;;
27031;SDS011;14580;52.918;9.214;2023-04-03T15:22:28;3.23;;;1.07;;
27031;SDS011;14580;52.918;9.214;2023-04-03T15:25:55;2.93;;;1.10;;
27031;SDS011;14580;52.918;9.214;2023-04-03T15:29:21;1.33;;;0.90;;
27031;SDS011;14580;52.918;9.214;2023-04-03T15:32:47;3.10;;;1.00;;
27031;SDS011;14580;52.918;9.214;2023-04-03T15:36:14;2.17;;;1.30;;
27031;SDS011;14580;52.918;9.214;2023-04-03T15:39:42;2.77;;;1.57;;
27031;SDS011;14580;52.918;9.214;2023-04-03T15:43:13;1.20;;;0.90;;
27031;SDS011;14580;52.918;9.214;2023-04-03T15:46:45;1.30;;;1.10;;
27031;SDS011;14580;52.918;9.214;2023-04-03T15:50:12;3.60;;;1.27;;
27031;SDS011;14580;52.918;9.214;2023-04-03T15:53:39;1.00;;;0.90;;
27031;SDS011;14580;52.918;9.214;2023-04-03T15:57:06;3.57;;;1.50;;
27031;SDS011;14580;52.918;9.214;2023-04-03T16:00:31;1.87;;;0.93;;
27031;SDS011;14580;52.918;9.214;2023-04-03T16:03:58;2.10;;;0.80;;
27031;SDS011;14580;52.918;9.214;2023-04-03T16:07:25;1.10;;;0.77;;
27031;SDS011;14580;52.918;9.214;2023-04-03T16:10:51;2.13;;;0.93;;
27031;SDS011;14580;52.918;9.214;2023-04-03T16:14:18;3.70;;;1.20;;
27031;SDS011;14580;52.918;9.214;2023-04-03T16:17:44;2.27;;;1.10;;
27031;SDS011;14580;52.918;9.214;2023-04-03T16:21:12;1.77;;;0.80;;
27031;SDS011;14580;52.918;9.214;2023-04-03T16:24:38;1.53;;;0.80;;
27031;SDS011;14580;52.918;9.214;2023-04-03T16:28:04;3.93;;;1.10;;
27031;SDS011;14580;52.918;9.214;2023-04-03T16:31:32;2.90;;;1.30;;
27031;SDS011;14580;52.918;9.214;2023-04-03T16:34:59;2.37;;;1.23;;
27031;SDS011;14580;52.918;9.214;2023-04-03T16:38:25;3.07;;;0.90;;
27031;SDS011;14580;52.918;9.214;2023-04-03T16:41:51;2.80;;;1.27;;
27031;SDS011;14580;52.918;9.214;2023-04-03T16:45:18;4.53;;;1.37;;
27031;SDS011;14580;52.918;9.214;2023-04-03T16:48:44;2.07;;;1.00;;
27031;SDS011;14580;52.918;9.214;2023-04-03T16:52:11;1.70;;;1.60;;
27031;SDS011;14580;52.918;9.214;2023-04-03T16:55:36;2.33;;;1.23;;
27031;SDS011;14580;52.918;9.214;2023-04-03T16:59:01;1.90;;;0.73;;
27031;SDS011;14580;52.918;9.214;2023-04-03T17:02:26;2.73;;;1.27;;
27031;SDS011;14580;52.918;9.214;2023-04-03T17:05:53;2.20;;;0.93;;
27031;SDS011;14580;52.918;9.214;2023-04-03T17:09:18;5.37;;;1.17;;
27031;SDS011;14580;52.918;9.214;2023-04-03T17:12:43;2.43;;;1.17;;
27031;SDS011;14580;52.918;9.214;2023-04-03T17:16:09;2.97;;;1.83;;
27031;SDS011;14580;52.918;9.214;2023-04-03T17:19:35;1.70;;;1.10;;
27031;SDS011;14580;52.918;9.214;2023-04-03T17:23:03;3.43;;;1.10;;
27031;SDS011;14580;52.918;9.214;2023-04-03T17:26:32;3.07;;;1.20;;
27031;SDS011;14580;52.918;9.214;2023-04-03T17:29:57;3.90;;;1.30;;
27031;SDS011;14580;52.918;9.214;2023-04-03T17:33:23;3.60;;;2.20;;
27031;SDS011;14580;52.918;9.214;2023-04-03T17:36:49;4.23;;;1.13;;
27031;SDS011;14580;52.918;9.214;2023-04-03T17:40:14;2.63;;;1.10;;
27031;SDS011;14580;52.918;9.214;2023-04-03T17:43:40;3.57;;;1.07;;
27031;SDS011;14580;52.918;9.214;2023-04-03T17:47:05;2.17;;;0.80;;
27031;SDS011;14580;52.918;9.214;2023-04-03T17:50:30;1.17;;;0.80;;
27031;SDS011;14580;52.918;9.214;2023-04-03T17:53:58;4.10;;;1.27;;
27031;SDS011;14580;52.918;9.214;2023-04-03T17:57:23;2.73;;;1.30;;
27031;SDS011;14580;52.918;9.214;2023-04-03T18:00:48;1.70;;;0.97;;
27031;SDS011;14580;52.918;9.214;2023-04-03T18:04:13;1.20;;;0.83;;
27031;SDS011;14580;52.918;9.214;2023-04-03T18:07:38;2.30;;;0.80;;
27031;SDS011;14580;52.918;9.214;2023-04-03T18:11:05;0.80;;;0.80;;
27031;SDS011;14580;52.918;9.214;2023-04-03T18:14:31;1.80;;;1.30;;
27031;SDS011;14580;52.918;9.214;2023-04-03T18:17:57;1.27;;;0.63;;
27031;SDS011;14580;52.918;9.214;2023-04-03T18:21:22;1.73;;;0.90;;
27031;SDS011;14580;52.918;9.214;2023-04-03T18:24:49;1.23;;;0.80;;
27031;SDS011;14580;52.918;9.214;2023-04-03T18:28:15;1.83;;;0.93;;
27031;SDS011;14580;52.918;9.214;2023-04-03T18:31:40;3.67;;;0.63;;
27031;SDS011;14580;52.918;9.214;2023-04-03T18:35:09;1.70;;;0.73;;
27031;SDS011;14580;52.918;9.214;2023-04-03T18:38:35;0.97;;;0.63;;
27031;SDS011;14580;52.918;9.214;2023-04-03T18:42:04;3.13;;;0.80;;
27031;SDS011;14580;52.918;9.214;2023-04-03T18:45:33;2.03;;;0.90;;
27031;SDS011;14580;52.918;9.214;2023-04-03T18:48:58;3.43;;;1.03;;
27031;SDS011;14580;52.918;9.214;2023-04-03T18:52:24;4.87;;;0.90;;
27031;SDS011;14580;52.918;9.214;2023-04-03T18:55:49;1.53;;;0.80;;
27031;SDS011;14580;52.918;9.214;2023-04-03T18:59:14;1.93;;;0.90;;
27031;SDS011;14580;52.918;9.214;2023-04-03T19:02:39;1.83;;;1.07;;
27031;SDS011;14580;52.918;9.214;2023-04-03T19:06:05;2.67;;;1.27;;
27031;SDS011;14580;52.918;9.214;2023-04-03T19:09:30;3.00;;;0.90;;
27031;SDS011;14580;52.918;9.214;2023-04-03T19:12:56;6.57;;;1.20;;
27031;SDS011;14580;52.918;9.214;2023-04-03T19:16:21;7.43;;;1.17;;
27031;SDS011;14580;52.918;9.214;2023-04-03T19:19:45;1.43;;;1.10;;
27031;SDS011;14580;52.918;9.214;2023-04-03T19:23:10;2.13;;;1.40;;
27031;SDS011;14580;52.918;9.214;2023-04-03T19:26:36;0.97;;;0.80;;
27031;SDS011;14580;52.918;9.214;2023-04-03T19:30:03;2.53;;;1.20;;
27031;SDS011;14580;52.918;9.214;2023-04-03T19:33:35;2.63;;;0.87;;
27031;SDS011;14580;52.918;9.214;2023-04-03T19:37:00;2.37;;;0.90;;
27031;SDS011;14580;52.918;9.214;2023-04-03T19:40:27;1.00;;;0.87;;
27031;SDS011;14580;52.918;9.214;2023-04-03T19:43:54;1.27;;;0.80;;
27031;SDS011;14580;52.918;9.214;2023-04-03T19:47:19;2.33;;;1.10;;
27031;SDS011;14580;52.918;9.214;2023-04-03T19:50:44;2.10;;;0.93;;
27031;SDS011;14580;52.918;9.214;2023-04-03T19:54:09;4.07;;;0.87;;
27031;SDS011;14580;52.918;9.214;2023-04-03T19:57:34;1.17;;;0.80;;
27031;SDS011;14580;52.918;9.214;2023-04-03T20:01:00;1.80;;;0.80;;
27031;SDS011;14580;52.918;9.214;2023-04-03T20:04:25;2.33;;;0.97;;
27031;SDS011;14580;52.918;9.214;2023-04-03T20:07:50;2.40;;;0.90;;
27031;SDS011;14580;52.918;9.214;2023-04-03T20:11:15;4.17;;;1.10;;
27031;SDS011;14580;52.918;9.214;2023-04-03T20:14:39;0.80;;;0.67;;
27031;SDS011;14580;52.918;9.214;2023-04-03T20:18:18;1.03;;;0.97;;
27031;SDS011;14580;52.918;9.214;2023-04-03T20:21:43;0.90;;;0.87;;
27031;SDS011;14580;52.918;9.214;2023-04-03T20:25:10;1.40;;;1.23;;
27031;SDS011;14580;52.918;9.214;2023-04-03T20:28:42;2.70;;;0.80;;
27031;SDS011;14580;52.918;9.214;2023-04-03T20:32:08;3.50;;;0.90;;
27031;SDS011;14580;52.918;9.214;2023-04-03T20:35:33;5.53;;;1.10;;
27031;SDS011;14580;52.918;9.214;2023-04-03T20:38:58;1.73;;;0.90;;
27031;SDS011;14580;52.918;9.214;2023-04-03T20:42:24;2.10;;;0.97;;
27031;SDS011;14580;52.918;9.214;2023-04-03T20:45:49;2.10;;;1.10;;
27031;SDS011;14580;52.918;9.214;2023-04-03T20:49:15;1.80;;;0.90;;
27031;SDS011;14580;52.918;9.214;2023-04-03T20:52:39;2.97;;;1.30;;
27031;SDS011;14580;52.918;9.214;2023-04-03T20:56:04;2.20;;;1.50;;
27031;SDS011;14580;52.918;9.214;2023-04-03T20:59:30;2.80;;;1.10;;
27031;SDS011;14580;52.918;9.214;2023-04-03T21:02:58;2.20;;;1.10;;
27031;SDS011;14580;52.918;9.214;2023-04-03T21:22:36;2.03;;;1.00;;
27031;SDS011;14580;52.918;9.214;2023-04-03T21:26:00;3.17;;;1.40;;
27031;SDS011;14580;52.918;9.214;2023-04-03T21:29:26;1.87;;;1.00;;
27031;SDS011;14580;52.918;9.214;2023-04-03T21:32:50;1.57;;;0.90;;
27031;SDS011;14580;52.918;9.214;2023-04-03T21:36:15;2.43;;;1.13;;
27031;SDS011;14580;52.918;9.214;2023-04-03T21:39:40;2.83;;;0.80;;
27031;SDS011;14580;52.918;9.214;2023-04-03T21:43:05;3.40;;;1.07;;
27031;SDS011;14580;52.918;9.214;2023-04-03T21:46:30;1.97;;;1.03;;
27031;SDS011;14580;52.918;9.214;2023-04-03T21:49:55;1.43;;;1.30;;
27031;SDS011;14580;52.918;9.214;2023-04-03T21:53:26;2.63;;;1.30;;
27031;SDS011;14580;52.918;9.214;2023-04-03T21:56:51;1.23;;;1.00;;
27031;SDS011;14580;52.918;9.214;2023-04-03T22:00:20;2.70;;;1.10;;
27031;SDS011;14580;52.918;9.214;2023-04-03T22:03:45;3.03;;;0.97;;
27031;SDS011;14580;52.918;9.214;2023-04-03T22:07:11;1.57;;;0.93;;
27031;SDS011;14580;52.918;9.214;2023-04-03T22:10:36;2.60;;;1.50;;
27031;SDS011;14580;52.918;9.214;2023-04-03T22:14:05;1.70;;;1.00;;
27031;SDS011;14580;52.918;9.214;2023-04-03T22:17:30;3.60;;;1.20;;
27031;SDS011;14580;52.918;9.214;2023-04-03T22:20:55;3.17;;;1.10;;
27031;SDS011;14580;52.918;9.214;2023-04-03T22:24:20;1.37;;;1.00;;
27031;SDS011;14580;52.918;9.214;2023-04-03T22:27:45;2.23;;;1.70;;
27031;SDS011;14580;52.918;9.214;2023-04-03T22:31:10;3.60;;;1.20;;
27031;SDS011;14580;52.918;9.214;2023-04-03T22:34:35;1.83;;;0.90;;
27031;SDS011;14580;52.918;9.214;2023-04-03T22:38:00;3.93;;;1.17;;
27031;SDS011;14580;52.918;9.214;2023-04-03T22:41:26;1.57;;;1.10;;
27031;SDS011;14580;52.918;9.214;2023-04-03T22:44:51;2.63;;;1.10;;
27031;SDS011;14580;52.918;9.214;2023-04-03T22:48:16;1.63;;;1.03;;
27031;SDS011;14580;52.918;9.214;2023-04-03T22:51:41;2.03;;;1.20;;
27031;SDS011;14580;52.918;9.214;2023-04-03T22:55:06;2.60;;;0.90;;
27031;SDS011;14580;52.918;9.214;2023-04-03T22:58:38;2.10;;;1.37;;
27031;SDS011;14580;52.918;9.214;2023-04-03T23:02:03;4.10;;;1.20;;
27031;SDS011;14580;52.918;9.214;2023-04-03T23:05:27;2.03;;;0.90;;
27031;SDS011;14580;52.918;9.214;2023-04-03T23:08:52;1.47;;;1.03;;
27031;SDS011;14580;52.918;9.214;2023-04-03T23:12:17;2.03;;;1.20;;
27031;SDS011;14580;52.918;9.214;2023-04-03T23:15:42;1.50;;;1.00;;
27031;SDS011;14580;52.918;9.214;2023-04-03T23:19:06;2.27;;;0.90;;
27031;SDS011;14580;52.918;9.214;2023-04-03T23:22:32;1.93;;;1.20;;
27031;SDS011;14580;52.918;9.214;2023-04-03T23:25:57;2.03;;;1.20;;
27031;SDS011;14580;52.918;9.214;2023-04-03T23:29:22;2.10;;;0.97;;
27031;SDS011;14580;52.918;9.214;2023-04-03T23:32:47;4.00;;;1.30;;
27031;SDS011;14580;52.918;9.214;2023-04-03T23:36:12;2.57;;;1.03;;
27031;SDS011;14580;52.918;9.214;2023-04-03T23:39:37;2.93;;;1.13;;
27031;SDS011;14580;52.918;9.214;2023-04-03T23:43:01;1.60;;;0.83;;
27031;SDS011;14580;52.918;9.214;2023-04-03T23:46:26;1.90;;;1.20;;
27031;SDS011;14580;52.918;9.214;2023-04-03T23:49:51;6.37;;;1.43;;
27031;SDS011;14580;52.918;9.214;2023-04-03T23:53:16;3.03;;;1.27;;
27031;SDS011;14580;52.918;9.214;2023-04-03T23:56:40;4.30;;;1.50;;
